createdAt,value
2023-08-29T00:02:54.834Z,2.88
2023-08-29T00:06:02.261Z,4.53
2023-08-29T00:09:05.386Z,3.42
2023-08-29T00:12:08.343Z,3.33
2023-08-29T00:15:13.354Z,3.92
2023-08-29T00:18:15.616Z,4.25
2023-08-29T00:21:17.974Z,5.97
2023-08-29T00:24:20.306Z,3.75
2023-08-29T00:27:22.554Z,4.60
2023-08-29T00:30:24.893Z,3.10
2023-08-29T00:33:27.226Z,4.28
2023-08-29T00:36:29.576Z,3.50
2023-08-29T00:39:32.759Z,3.95
2023-08-29T00:42:36.035Z,3.08
2023-08-29T00:45:38.767Z,2.67
2023-08-29T00:48:41.150Z,3.35
2023-08-29T00:51:44.178Z,3.38
2023-08-29T00:54:46.578Z,5.05
2023-08-29T00:57:49.496Z,6.10
2023-08-29T01:00:52.176Z,4.78
2023-08-29T01:03:54.505Z,3.72
2023-08-29T01:06:58.478Z,2.80
2023-08-29T01:10:00.859Z,5.10
2023-08-29T01:13:29.616Z,5.30
2023-08-29T01:16:39.389Z,7.22
2023-08-29T01:19:43.948Z,3.28
2023-08-29T01:23:04.105Z,3.92
2023-08-29T01:26:14.898Z,4.00
2023-08-29T01:29:17.825Z,3.45
2023-08-29T01:32:20.664Z,2.42
2023-08-29T01:35:23.754Z,2.75
2023-08-29T01:38:25.987Z,3.13
2023-08-29T01:41:28.434Z,2.13
2023-08-29T01:44:30.862Z,3.00
2023-08-29T01:47:33.194Z,2.28
2023-08-29T01:50:37.842Z,3.28
2023-08-29T01:53:40.482Z,3.28
2023-08-29T01:56:43.920Z,3.83
2023-08-29T01:59:47.393Z,2.85
2023-08-29T02:02:50.523Z,2.80
2023-08-29T02:05:52.901Z,2.20
2023-08-29T02:08:55.971Z,6.35
2023-08-29T02:11:58.466Z,2.85
2023-08-29T02:15:02.241Z,2.83
2023-08-29T02:18:05.005Z,2.50
2023-08-29T02:21:07.535Z,2.17
2023-08-29T02:24:09.934Z,2.17
2023-08-29T02:27:12.283Z,2.47
2023-08-29T02:30:14.793Z,3.33
2023-08-29T02:33:17.073Z,3.05
2023-08-29T02:36:19.304Z,4.28
2023-08-29T02:39:21.590Z,3.80
2023-08-29T02:42:23.944Z,2.38
2023-08-29T02:45:26.212Z,2.10
2023-08-29T02:48:29.296Z,2.90
2023-08-29T02:51:31.693Z,2.47
2023-08-29T02:54:34.670Z,3.83
2023-08-29T02:57:36.951Z,2.97
2023-08-29T03:00:39.379Z,1.98
2023-08-29T03:03:41.905Z,2.80
2023-08-29T03:06:44.378Z,3.40
2023-08-29T03:09:48.598Z,3.40
2023-08-29T03:12:54.258Z,3.28
2023-08-29T03:15:57.160Z,2.70
2023-08-29T03:18:59.562Z,4.72
2023-08-29T03:22:02.185Z,2.67
2023-08-29T03:25:06.617Z,2.63
2023-08-29T03:28:09.215Z,2.60
2023-08-29T03:31:16.676Z,3.42
2023-08-29T03:34:18.964Z,2.95
2023-08-29T03:37:21.423Z,6.10
2023-08-29T03:40:23.779Z,3.25
2023-08-29T03:43:29.300Z,2.45
2023-08-29T03:46:31.660Z,2.90
2023-08-29T03:49:33.981Z,3.15
2023-08-29T03:52:36.307Z,2.50
2023-08-29T03:55:38.937Z,3.00
2023-08-29T03:58:42.720Z,2.88
2023-08-29T04:01:45.090Z,3.50
2023-08-29T04:04:52.520Z,3.83
2023-08-29T04:07:55.008Z,2.40
2023-08-29T04:10:58.183Z,2.58
2023-08-29T04:14:00.869Z,3.50
2023-08-29T04:17:03.376Z,2.63
2023-08-29T04:20:14.024Z,2.80
2023-08-29T04:23:16.560Z,3.60
2023-08-29T04:26:19.551Z,4.35
2023-08-29T04:29:21.879Z,2.13
2023-08-29T04:32:25.319Z,2.88
2023-08-29T04:35:27.666Z,2.67
2023-08-29T04:38:33.190Z,2.55
2023-08-29T04:41:35.501Z,2.40
2023-08-29T04:44:38.146Z,2.30
2023-08-29T04:47:40.879Z,3.65
2023-08-29T04:50:43.326Z,2.25
2023-08-29T04:53:45.669Z,2.75
2023-08-29T04:56:47.997Z,4.00
2023-08-29T04:59:50.651Z,2.65
2023-08-29T05:02:53.079Z,4.53
2023-08-29T05:05:55.405Z,2.83
2023-08-29T05:08:57.684Z,2.80
2023-08-29T05:12:00.085Z,2.20
2023-08-29T05:15:02.407Z,3.65
2023-08-29T05:18:07.176Z,2.55
2023-08-29T05:21:09.862Z,2.70
2023-08-29T05:24:12.323Z,2.60
2023-08-29T05:27:14.917Z,2.60
2023-08-29T05:30:17.405Z,2.42
2023-08-29T05:33:19.782Z,2.70
2023-08-29T05:36:22.120Z,1.70
2023-08-29T05:39:24.588Z,3.35
2023-08-29T05:42:27.941Z,2.03
2023-08-29T05:45:30.323Z,3.35
2023-08-29T05:48:32.677Z,2.38
2023-08-29T05:51:35.053Z,3.33
2023-08-29T05:54:40.413Z,2.50
2023-08-29T05:57:42.774Z,2.38
2023-08-29T06:00:45.110Z,2.22
2023-08-29T06:03:48.889Z,2.30
2023-08-29T06:06:51.699Z,1.58
2023-08-29T06:09:54.064Z,2.08
2023-08-29T06:12:56.660Z,1.65
2023-08-29T06:15:58.998Z,1.90
2023-08-29T06:19:01.469Z,2.25
2023-08-29T06:22:04.721Z,1.85
2023-08-29T06:25:07.592Z,2.33
2023-08-29T06:28:09.851Z,1.45
2023-08-29T06:31:12.156Z,1.50
2023-08-29T06:34:14.482Z,1.48
2023-08-29T06:37:17.552Z,1.55
2023-08-29T06:40:19.856Z,1.67
2023-08-29T06:43:23.055Z,2.17
2023-08-29T06:46:25.501Z,1.58
2023-08-29T06:49:28.316Z,0.90
2023-08-29T06:52:30.598Z,1.13
2023-08-29T06:55:36.027Z,1.52
2023-08-29T06:58:39.750Z,1.10
2023-08-29T07:01:42.948Z,1.35
2023-08-29T07:04:45.268Z,1.10
2023-08-29T07:07:47.809Z,1.17
2023-08-29T07:10:50.165Z,2.22
2023-08-29T07:13:52.939Z,2.15
2023-08-29T07:17:09.279Z,1.38
2023-08-29T07:20:13.342Z,1.10
2023-08-29T07:23:15.644Z,2.55
2023-08-29T07:26:17.930Z,1.33
2023-08-29T07:29:20.771Z,0.93
2023-08-29T07:32:23.156Z,1.13
2023-08-29T07:35:25.914Z,2.08
2023-08-29T07:38:28.177Z,1.48
2023-08-29T07:41:30.644Z,1.42
2023-08-29T07:44:32.989Z,2.35
2023-08-29T07:47:35.359Z,1.58
2023-08-29T07:50:37.736Z,1.70
2023-08-29T07:53:41.065Z,2.88
2023-08-29T07:56:43.514Z,1.73
2023-08-29T07:59:45.946Z,1.83
2023-08-29T08:02:48.303Z,2.03
2023-08-29T08:05:51.059Z,2.63
2023-08-29T08:08:54.994Z,1.02
2023-08-29T08:11:57.671Z,1.15
2023-08-29T08:15:00.481Z,1.08
2023-08-29T08:18:02.816Z,1.00
2023-08-29T08:21:05.301Z,1.05
2023-08-29T08:24:09.545Z,0.57
2023-08-29T08:27:11.860Z,1.52
2023-08-29T08:30:14.717Z,0.57
2023-08-29T08:33:17.060Z,0.82
2023-08-29T08:36:19.331Z,1.02
2023-08-29T08:39:22.934Z,1.60
2023-08-29T08:42:25.340Z,1.58
2023-08-29T08:45:27.767Z,1.13
2023-08-29T08:48:31.167Z,0.75
2023-08-29T08:51:34.633Z,1.05
2023-08-29T08:54:37.046Z,1.52
2023-08-29T08:57:39.528Z,1.17
2023-08-29T09:00:41.885Z,2.22
2023-08-29T09:03:44.922Z,1.58
2023-08-29T09:06:47.322Z,2.78
2023-08-29T09:10:16.628Z,1.85
2023-08-29T09:13:19.290Z,1.98
2023-08-29T09:16:23.111Z,1.92
2023-08-29T09:19:26.321Z,2.28
2023-08-29T09:22:28.951Z,1.15
2023-08-29T09:25:31.276Z,1.98
2023-08-29T09:28:33.675Z,2.08
2023-08-29T09:31:36.005Z,1.30
2023-08-29T09:34:38.286Z,2.20
2023-08-29T09:37:52.455Z,1.70
2023-08-29T09:40:56.719Z,1.63
2023-08-29T09:43:59.216Z,1.80
2023-08-29T09:47:01.819Z,1.52
2023-08-29T09:50:04.525Z,1.83
2023-08-29T09:53:08.421Z,2.47
2023-08-29T09:56:11.389Z,2.13
2023-08-29T09:59:18.483Z,1.60
2023-08-29T10:02:22.854Z,2.20
2023-08-29T10:05:37.594Z,2.10
2023-08-29T10:08:47.550Z,1.15
2023-08-29T10:11:54.716Z,1.60
2023-08-29T10:14:58.408Z,1.45
2023-08-29T10:18:00.947Z,1.65
2023-08-29T10:21:05.317Z,1.27
2023-08-29T10:24:09.012Z,1.30
2023-08-29T10:27:11.736Z,3.47
2023-08-29T10:30:16.240Z,1.45
2023-08-29T10:33:20.128Z,1.38
2023-08-29T10:36:22.390Z,1.27
2023-08-29T10:39:28.530Z,1.95
2023-08-29T10:42:52.852Z,1.30
2023-08-29T10:45:55.173Z,1.30
2023-08-29T10:48:59.986Z,1.20
2023-08-29T10:52:09.736Z,1.33
2023-08-29T10:58:40.488Z,1.98
2023-08-29T11:01:42.940Z,1.35
2023-08-29T11:04:55.999Z,1.58
2023-08-29T11:08:22.434Z,2.33
2023-08-29T11:11:24.918Z,1.23
2023-08-29T11:14:28.724Z,1.63
2023-08-29T11:17:33.358Z,2.17
2023-08-29T11:20:36.143Z,1.48
2023-08-29T11:23:40.736Z,1.75
2023-08-29T11:26:46.480Z,2.08
2023-08-29T11:29:57.893Z,1.33
2023-08-29T11:33:08.704Z,1.23
2023-08-29T11:36:11.220Z,1.60
2023-08-29T11:39:13.645Z,1.58
2023-08-29T11:43:02.637Z,1.35
2023-08-29T11:45:47.584Z,0.77
2023-08-29T11:48:51.749Z,0.93
2023-08-29T11:51:54.631Z,1.17
2023-08-29T11:55:01.570Z,1.05
2023-08-29T11:58:04.448Z,1.55
2023-08-29T12:01:08.759Z,2.08
2023-08-29T12:04:11.134Z,1.30
2023-08-29T12:07:15.128Z,1.08
2023-08-29T12:10:18.280Z,1.00
2023-08-29T12:13:20.870Z,0.88
2023-08-29T12:16:23.347Z,0.63
2023-08-29T12:19:25.746Z,0.82
2023-08-29T12:22:31.736Z,1.05
2023-08-29T12:25:33.991Z,0.77
2023-08-29T12:28:36.389Z,1.00
2023-08-29T12:31:38.697Z,1.60
2023-08-29T12:34:42.812Z,1.23
2023-08-29T12:37:45.589Z,1.20
2023-08-29T12:40:47.858Z,1.30
2023-08-29T12:43:50.519Z,1.05
2023-08-29T12:46:52.827Z,1.08
2023-08-29T12:49:55.075Z,2.10
2023-08-29T12:53:01.020Z,0.65
2023-08-29T12:56:03.620Z,0.77
2023-08-29T12:59:06.009Z,1.90
2023-08-29T13:02:08.345Z,1.27
2023-08-29T13:05:10.614Z,1.40
2023-08-29T13:08:13.040Z,1.15
2023-08-29T13:11:15.321Z,1.08
2023-08-29T13:14:17.651Z,1.02
2023-08-29T13:17:20.270Z,1.17
2023-08-29T13:20:23.071Z,1.70
2023-08-29T13:23:25.371Z,1.48
2023-08-29T13:26:27.696Z,2.63
2023-08-29T13:29:31.725Z,1.33
2023-08-29T13:32:37.556Z,0.80
2023-08-29T13:35:39.962Z,1.17
2023-08-29T13:38:42.299Z,0.98
2023-08-29T13:41:45.433Z,0.88
2023-08-29T13:44:47.720Z,1.02
2023-08-29T13:47:53.219Z,0.63
2023-08-29T13:50:55.736Z,0.70
2023-08-29T13:53:57.999Z,0.70
2023-08-29T13:57:00.313Z,0.73
2023-08-29T14:00:04.674Z,1.63
2023-08-29T14:03:25.286Z,1.63
2023-08-29T14:06:28.704Z,1.33
2023-08-29T14:09:31.121Z,0.57
2023-08-29T14:12:33.567Z,0.65
2023-08-29T14:15:36.081Z,0.50
2023-08-29T14:18:38.813Z,0.90
2023-08-29T14:21:41.148Z,1.00
2023-08-29T14:24:43.459Z,1.15
2023-08-29T14:27:45.902Z,0.80
2023-08-29T14:30:49.647Z,1.23
2023-08-29T14:33:52.408Z,0.90
2023-08-29T14:36:55.080Z,0.77
2023-08-29T14:39:57.426Z,0.60
2023-08-29T14:42:59.834Z,1.08
2023-08-29T14:46:02.077Z,0.90
2023-08-29T14:49:04.431Z,0.43
2023-08-29T14:52:07.031Z,0.40
2023-08-29T14:55:09.929Z,1.00
2023-08-29T14:58:12.202Z,0.98
2023-08-29T15:01:14.895Z,1.10
2023-08-29T15:04:18.521Z,1.23
2023-08-29T15:07:21.379Z,0.77
2023-08-29T15:10:23.917Z,1.88
2023-08-29T15:13:26.484Z,1.13
2023-08-29T15:16:28.744Z,0.85
2023-08-29T15:19:31.593Z,1.50
2023-08-29T15:22:33.861Z,0.95
2023-08-29T15:25:36.715Z,1.73
2023-08-29T15:28:38.995Z,0.98
2023-08-29T15:31:41.330Z,1.15
2023-08-29T15:34:43.608Z,1.30
2023-08-29T15:37:46.103Z,1.75
2023-08-29T15:40:51.261Z,0.98
2023-08-29T15:43:53.955Z,2.17
2023-08-29T15:46:56.270Z,1.05
2023-08-29T15:49:58.702Z,0.75
2023-08-29T15:53:02.249Z,0.82
2023-08-29T15:56:06.381Z,1.83
2023-08-29T15:59:08.623Z,1.55
2023-08-29T16:02:12.333Z,0.95
2023-08-29T16:05:14.637Z,0.90
2023-08-29T16:08:17.594Z,1.10
2023-08-29T16:11:20.903Z,1.65
2023-08-29T16:14:23.547Z,1.40
2023-08-29T16:17:26.479Z,1.73
2023-08-29T16:20:29.173Z,1.55
2023-08-29T16:23:31.991Z,2.65
2023-08-29T16:26:34.314Z,2.28
2023-08-29T16:29:36.620Z,1.38
2023-08-29T16:32:41.329Z,2.40
2023-08-29T16:35:45.095Z,1.80
2023-08-29T16:38:47.810Z,2.08
2023-08-29T16:41:50.744Z,2.03
2023-08-29T16:44:53.145Z,2.25
2023-08-29T16:47:56.616Z,1.67
2023-08-29T16:50:59.187Z,1.42
2023-08-29T16:54:01.570Z,2.33
2023-08-29T16:57:04.666Z,2.05
2023-08-29T17:00:11.664Z,2.03
2023-08-29T17:03:14.192Z,2.83
2023-08-29T17:06:17.179Z,1.50
2023-08-29T17:09:19.736Z,1.50
2023-08-29T17:12:23.784Z,1.77
2023-08-29T17:15:26.469Z,2.25
2023-08-29T17:18:28.811Z,2.45
2023-08-29T17:21:31.308Z,2.15
2023-08-29T17:24:34.531Z,1.40
2023-08-29T17:27:37.380Z,2.13
2023-08-29T17:30:40.392Z,1.65
2023-08-29T17:33:42.767Z,1.70
2023-08-29T17:36:45.359Z,1.42
2023-08-29T17:39:49.507Z,3.88
2023-08-29T17:42:52.220Z,1.90
2023-08-29T17:45:58.332Z,0.98
2023-08-29T17:49:00.660Z,1.70
2023-08-29T17:52:02.953Z,1.73
2023-08-29T17:55:05.898Z,4.15
2023-08-29T17:58:13.635Z,2.13
2023-08-29T18:01:15.968Z,2.20
2023-08-29T18:04:18.274Z,1.90
2023-08-29T18:07:21.818Z,1.80
2023-08-29T18:10:24.619Z,1.60
2023-08-29T18:13:26.937Z,1.95
2023-08-29T18:16:29.243Z,2.38
2023-08-29T18:19:32.529Z,2.03
2023-08-29T18:22:37.421Z,1.77
2023-08-29T18:25:41.888Z,2.08
2023-08-29T18:28:46.459Z,2.03
2023-08-29T18:31:51.137Z,3.25
2023-08-29T18:34:56.248Z,1.38
2023-08-29T18:38:00.770Z,1.98
2023-08-29T18:41:05.507Z,3.30
2023-08-29T18:44:09.869Z,2.78
2023-08-29T18:47:14.460Z,2.33
2023-08-29T18:50:17.572Z,2.88
2023-08-29T18:53:21.080Z,3.65
2023-08-29T18:56:23.495Z,3.65
2023-08-29T18:59:25.893Z,5.20
2023-08-29T19:02:28.442Z,3.45
2023-08-29T19:05:30.978Z,3.75
2023-08-29T19:08:33.294Z,4.38
2023-08-29T19:11:35.960Z,3.50
2023-08-29T19:14:38.309Z,3.58
2023-08-29T19:17:40.875Z,3.95
2023-08-29T19:20:43.332Z,4.35
2023-08-29T19:23:45.683Z,3.20
2023-08-29T19:26:48.556Z,3.15
2023-08-29T19:29:51.032Z,3.35
2023-08-29T19:32:54.417Z,2.70
2023-08-29T19:35:57.288Z,2.67
2023-08-29T19:39:12.223Z,2.75
2023-08-29T19:42:19.485Z,3.35
2023-08-29T19:45:21.772Z,4.22
2023-08-29T19:48:25.371Z,3.17
2023-08-29T19:51:27.636Z,2.30
2023-08-29T19:54:29.923Z,3.75
2023-08-29T19:57:32.191Z,3.28
2023-08-29T20:00:34.777Z,4.68
2023-08-29T20:03:38.378Z,2.78
2023-08-29T20:06:41.798Z,2.20
2023-08-29T20:09:44.168Z,3.50
2023-08-29T20:12:49.936Z,1.95
2023-08-29T20:15:52.320Z,2.35
2023-08-29T20:18:55.822Z,2.63
2023-08-29T20:21:58.196Z,2.47
2023-08-29T20:25:00.850Z,3.72
2023-08-29T20:28:03.502Z,3.38
2023-08-29T20:31:08.267Z,2.75
2023-08-29T20:34:10.736Z,2.35
2023-08-29T20:37:13.009Z,2.22
2023-08-29T20:40:15.462Z,2.28
2023-08-29T20:43:18.044Z,2.92
2023-08-29T20:46:20.585Z,1.98
2023-08-29T20:49:22.928Z,2.53
2023-08-29T20:52:26.042Z,2.58
2023-08-29T20:55:28.306Z,2.08
2023-08-29T20:58:30.631Z,1.75
2023-08-29T21:01:32.978Z,2.72
2023-08-29T21:04:35.349Z,1.65
2023-08-29T21:07:37.616Z,1.70
2023-08-29T21:10:42.355Z,1.77
2023-08-29T21:13:44.780Z,1.70
2023-08-29T21:16:47.548Z,2.50
2023-08-29T21:19:50.000Z,1.88
2023-08-29T21:22:52.290Z,3.17
2023-08-29T21:25:54.832Z,2.10
2023-08-29T21:28:57.137Z,3.53
2023-08-29T21:31:59.553Z,2.00
2023-08-29T21:35:01.836Z,2.05
2023-08-29T21:38:04.352Z,1.88
2023-08-29T21:41:06.781Z,1.83
2023-08-29T21:44:09.359Z,2.60
2023-08-29T21:47:11.595Z,3.15
2023-08-29T21:50:13.962Z,2.42
2023-08-29T21:53:16.326Z,1.98
2023-08-29T21:56:20.280Z,1.95
2023-08-29T21:59:22.511Z,2.47
2023-08-29T22:02:24.872Z,2.85
2023-08-29T22:05:28.208Z,1.55
2023-08-29T22:08:30.680Z,2.35
2023-08-29T22:11:33.924Z,1.25
2023-08-29T22:14:36.390Z,2.15
2023-08-29T22:17:39.480Z,4.32
2023-08-29T22:20:41.841Z,2.88
2023-08-29T22:23:44.078Z,3.35
2023-08-29T22:26:46.621Z,3.65
2023-08-29T22:29:48.969Z,1.92
2023-08-29T22:32:53.399Z,1.88
2023-08-29T22:35:55.722Z,1.95
2023-08-29T22:38:57.948Z,3.30
2023-08-29T22:42:00.983Z,1.75
2023-08-29T22:45:04.448Z,2.10
2023-08-29T22:48:07.171Z,1.85
2023-08-29T22:51:10.134Z,2.47
2023-08-29T22:54:12.894Z,4.25
2023-08-29T22:57:15.709Z,1.70
2023-08-29T23:00:18.200Z,1.95
2023-08-29T23:03:20.686Z,1.77
2023-08-29T23:06:23.533Z,1.75
2023-08-29T23:09:25.825Z,2.83
2023-08-29T23:12:28.741Z,2.55
2023-08-29T23:15:31.065Z,2.70
2023-08-29T23:18:33.423Z,3.67
2023-08-29T23:21:36.000Z,1.65
2023-08-29T23:24:38.262Z,2.10
2023-08-29T23:27:40.541Z,2.22
2023-08-29T23:30:42.820Z,2.10
2023-08-29T23:33:52.340Z,1.70
2023-08-29T23:36:54.629Z,2.15
2023-08-29T23:39:56.924Z,2.08
2023-08-29T23:42:59.271Z,2.95
2023-08-29T23:46:02.051Z,2.88
2023-08-29T23:49:04.320Z,2.28
2023-08-29T23:52:06.669Z,1.88
2023-08-29T23:55:09.126Z,2.05
2023-08-29T23:58:11.491Z,2.75
